Аэропорт: Могилёв. Могилёв

ICAO: UMOO

METAR:
Информация по данной станции не доступна
TAF:
2024-04-22 11:03:00
TAF UMOO 221103Z 2212/2221 22005G10MPS 6000 BKN012 
  TEMPO 2212/2218 24010G15MPS 3000 -SHRA BR BKN005 BKN015CB